sensor_id;sensor_type;location;lat;lon;timestamp;pressure;altitude;pressure_sealevel;temperature;humidity
16016;BME280;8112;53.592;10.184;2023-08-21T00:03:39;101959.13;;;18.35;100.00
16016;BME280;8112;53.592;10.184;2023-08-21T00:08:40;101942.41;;;18.07;100.00
16016;BME280;8112;53.592;10.184;2023-08-21T00:13:44;101939.25;;;17.89;100.00
16016;BME280;8112;53.592;10.184;2023-08-21T00:18:48;101937.66;;;17.74;100.00
16016;BME280;8112;53.592;10.184;2023-08-21T00:23:50;101944.59;;;17.76;100.00
16016;BME280;8112;53.592;10.184;2023-08-21T00:28:53;101946.63;;;17.60;100.00
16016;BME280;8112;53.592;10.184;2023-08-21T00:33:54;101950.16;;;17.47;100.00
16016;BME280;8112;53.592;10.184;2023-08-21T00:38:56;101947.03;;;17.41;100.00
16016;BME280;8112;53.592;10.184;2023-08-21T00:43:59;101956.44;;;17.33;100.00
16016;BME280;8112;53.592;10.184;2023-08-21T00:49:01;101942.66;;;17.27;100.00
16016;BME280;8112;53.592;10.184;2023-08-21T00:54:03;101946.59;;;17.21;100.00
16016;BME280;8112;53.592;10.184;2023-08-21T00:59:06;101951.59;;;17.13;100.00
16016;BME280;8112;53.592;10.184;2023-08-21T01:04:08;101948.59;;;17.04;100.00
16016;BME280;8112;53.592;10.184;2023-08-21T01:09:15;101945.94;;;17.04;100.00
16016;BME280;8112;53.592;10.184;2023-08-21T01:14:27;101946.41;;;16.96;100.00
16016;BME280;8112;53.592;10.184;2023-08-21T01:19:35;101947.25;;;16.84;100.00
16016;BME280;8112;53.592;10.184;2023-08-21T01:24:38;101951.16;;;16.78;100.00
16016;BME280;8112;53.592;10.184;2023-08-21T01:29:40;101948.19;;;16.83;100.00
16016;BME280;8112;53.592;10.184;2023-08-21T01:34:43;101946.38;;;16.84;100.00
16016;BME280;8112;53.592;10.184;2023-08-21T01:39:46;101954.81;;;16.90;100.00
16016;BME280;8112;53.592;10.184;2023-08-21T01:44:48;101961.91;;;16.77;100.00
16016;BME280;8112;53.592;10.184;2023-08-21T01:49:50;101964.22;;;16.69;100.00
16016;BME280;8112;53.592;10.184;2023-08-21T01:54:53;101954.34;;;16.71;100.00
16016;BME280;8112;53.592;10.184;2023-08-21T01:59:55;101963.66;;;16.63;100.00
16016;BME280;8112;53.592;10.184;2023-08-21T02:04:57;101948.50;;;16.51;100.00
16016;BME280;8112;53.592;10.184;2023-08-21T02:10:00;101949.94;;;16.57;100.00
16016;BME280;8112;53.592;10.184;2023-08-21T02:15:02;101948.31;;;16.54;100.00
16016;BME280;8112;53.592;10.184;2023-08-21T02:20:07;101951.56;;;16.45;100.00
16016;BME280;8112;53.592;10.184;2023-08-21T02:25:11;101957.56;;;16.34;100.00
16016;BME280;8112;53.592;10.184;2023-08-21T02:30:13;101965.47;;;16.21;100.00
16016;BME280;8112;53.592;10.184;2023-08-21T02:35:14;101962.06;;;16.19;100.00
16016;BME280;8112;53.592;10.184;2023-08-21T02:40:17;101963.97;;;16.17;100.00
16016;BME280;8112;53.592;10.184;2023-08-21T02:45:20;101960.84;;;16.10;100.00
16016;BME280;8112;53.592;10.184;2023-08-21T02:50:22;101970.25;;;16.16;100.00
16016;BME280;8112;53.592;10.184;2023-08-21T02:55:25;101970.63;;;16.09;100.00
16016;BME280;8112;53.592;10.184;2023-08-21T03:00:26;101972.34;;;16.10;100.00
16016;BME280;8112;53.592;10.184;2023-08-21T03:05:28;101969.28;;;16.17;100.00
16016;BME280;8112;53.592;10.184;2023-08-21T03:10:31;101972.53;;;16.07;100.00
16016;BME280;8112;53.592;10.184;2023-08-21T03:15:35;101985.66;;;15.96;100.00
16016;BME280;8112;53.592;10.184;2023-08-21T03:20:36;101972.03;;;16.01;100.00
16016;BME280;8112;53.592;10.184;2023-08-21T03:25:39;101980.50;;;16.07;100.00
16016;BME280;8112;53.592;10.184;2023-08-21T03:30:41;101973.00;;;16.00;100.00
16016;BME280;8112;53.592;10.184;2023-08-21T03:35:43;101976.72;;;15.97;100.00
16016;BME280;8112;53.592;10.184;2023-08-21T03:40:46;101968.72;;;15.82;100.00
16016;BME280;8112;53.592;10.184;2023-08-21T03:45:48;101984.31;;;15.89;100.00
16016;BME280;8112;53.592;10.184;2023-08-21T03:50:52;101979.34;;;15.82;100.00
16016;BME280;8112;53.592;10.184;2023-08-21T03:55:55;101979.53;;;15.79;100.00
16016;BME280;8112;53.592;10.184;2023-08-21T04:00:56;101985.41;;;15.85;100.00
16016;BME280;8112;53.592;10.184;2023-08-21T04:05:59;101975.38;;;16.04;100.00
16016;BME280;8112;53.592;10.184;2023-08-21T04:11:02;101977.09;;;16.05;100.00
16016;BME280;8112;53.592;10.184;2023-08-21T04:16:04;101971.28;;;15.99;100.00
16016;BME280;8112;53.592;10.184;2023-08-21T04:21:06;101976.91;;;15.94;100.00
16016;BME280;8112;53.592;10.184;2023-08-21T04:26:09;101981.38;;;15.93;100.00
16016;BME280;8112;53.592;10.184;2023-08-21T04:31:10;101981.66;;;15.89;100.00
16016;BME280;8112;53.592;10.184;2023-08-21T04:36:16;101988.47;;;16.07;100.00
16016;BME280;8112;53.592;10.184;2023-08-21T04:41:21;101995.22;;;16.28;100.00
16016;BME280;8112;53.592;10.184;2023-08-21T04:46:23;101999.78;;;16.26;100.00
16016;BME280;8112;53.592;10.184;2023-08-21T04:51:25;101994.81;;;16.34;100.00
16016;BME280;8112;53.592;10.184;2023-08-21T04:56:28;101993.38;;;16.43;100.00
16016;BME280;8112;53.592;10.184;2023-08-21T05:01:31;101995.50;;;16.65;100.00
16016;BME280;8112;53.592;10.184;2023-08-21T05:06:34;101986.09;;;17.01;100.00
16016;BME280;8112;53.592;10.184;2023-08-21T05:11:38;101995.84;;;17.28;100.00
16016;BME280;8112;53.592;10.184;2023-08-21T05:16:40;101998.25;;;17.59;100.00
16016;BME280;8112;53.592;10.184;2023-08-21T05:21:42;102009.13;;;17.69;100.00
16016;BME280;8112;53.592;10.184;2023-08-21T05:26:47;101997.50;;;17.70;100.00
16016;BME280;8112;53.592;10.184;2023-08-21T05:31:49;101994.50;;;17.87;100.00
16016;BME280;8112;53.592;10.184;2023-08-21T05:36:51;102000.75;;;18.62;100.00
16016;BME280;8112;53.592;10.184;2023-08-21T05:41:56;101995.63;;;19.32;100.00
16016;BME280;8112;53.592;10.184;2023-08-21T05:46:59;101996.16;;;19.49;100.00
16016;BME280;8112;53.592;10.184;2023-08-21T05:52:00;101988.28;;;19.93;100.00
16016;BME280;8112;53.592;10.184;2023-08-21T05:57:04;101987.31;;;20.05;100.00
16016;BME280;8112;53.592;10.184;2023-08-21T06:02:06;101992.19;;;20.23;100.00
16016;BME280;8112;53.592;10.184;2023-08-21T06:07:08;101993.88;;;19.90;100.00
16016;BME280;8112;53.592;10.184;2023-08-21T06:12:11;102004.25;;;19.94;100.00
16016;BME280;8112;53.592;10.184;2023-08-21T06:17:15;102002.56;;;20.05;100.00
16016;BME280;8112;53.592;10.184;2023-08-21T06:22:17;102009.34;;;20.09;100.00
16016;BME280;8112;53.592;10.184;2023-08-21T06:27:20;102002.28;;;20.31;100.00
16016;BME280;8112;53.592;10.184;2023-08-21T06:32:22;102017.72;;;20.27;100.00
16016;BME280;8112;53.592;10.184;2023-08-21T06:37:23;102016.63;;;20.41;100.00
16016;BME280;8112;53.592;10.184;2023-08-21T06:42:26;102007.09;;;20.60;100.00
16016;BME280;8112;53.592;10.184;2023-08-21T06:47:30;102011.31;;;20.74;100.00
16016;BME280;8112;53.592;10.184;2023-08-21T06:52:32;102015.69;;;20.75;100.00
16016;BME280;8112;53.592;10.184;2023-08-21T06:57:35;102013.63;;;21.11;100.00
16016;BME280;8112;53.592;10.184;2023-08-21T07:02:37;102008.72;;;21.16;100.00
16016;BME280;8112;53.592;10.184;2023-08-21T07:07:39;102008.09;;;21.45;100.00
16016;BME280;8112;53.592;10.184;2023-08-21T07:12:42;102006.72;;;21.51;100.00
16016;BME280;8112;53.592;10.184;2023-08-21T07:17:44;101999.13;;;21.14;100.00
16016;BME280;8112;53.592;10.184;2023-08-21T07:22:45;102011.28;;;21.18;100.00
16016;BME280;8112;53.592;10.184;2023-08-21T07:27:48;101994.25;;;21.07;100.00
16016;BME280;8112;53.592;10.184;2023-08-21T07:32:52;101994.94;;;21.42;100.00
16016;BME280;8112;53.592;10.184;2023-08-21T07:37:54;101996.38;;;21.68;100.00
16016;BME280;8112;53.592;10.184;2023-08-21T07:42:57;102007.97;;;21.99;100.00
16016;BME280;8112;53.592;10.184;2023-08-21T07:47:59;102000.13;;;21.86;100.00
16016;BME280;8112;53.592;10.184;2023-08-21T07:53:01;101998.81;;;22.12;100.00
16016;BME280;8112;53.592;10.184;2023-08-21T07:58:04;101996.34;;;22.40;100.00
16016;BME280;8112;53.592;10.184;2023-08-21T08:03:06;101999.75;;;22.42;100.00
16016;BME280;8112;53.592;10.184;2023-08-21T08:08:08;101994.16;;;22.64;100.00
16016;BME280;8112;53.592;10.184;2023-08-21T08:13:11;101997.53;;;22.67;100.00
16016;BME280;8112;53.592;10.184;2023-08-21T08:18:13;101998.69;;;22.64;100.00
16016;BME280;8112;53.592;10.184;2023-08-21T08:23:15;101992.63;;;22.91;100.00
16016;BME280;8112;53.592;10.184;2023-08-21T08:28:18;101997.41;;;22.68;100.00
16016;BME280;8112;53.592;10.184;2023-08-21T08:33:19;101993.03;;;23.16;100.00
16016;BME280;8112;53.592;10.184;2023-08-21T08:38:21;101989.91;;;23.41;100.00
16016;BME280;8112;53.592;10.184;2023-08-21T08:43:25;101990.88;;;23.49;100.00
16016;BME280;8112;53.592;10.184;2023-08-21T08:48:29;101993.84;;;23.56;100.00
16016;BME280;8112;53.592;10.184;2023-08-21T08:53:30;101998.72;;;23.81;100.00
16016;BME280;8112;53.592;10.184;2023-08-21T08:58:34;101996.22;;;24.07;100.00
16016;BME280;8112;53.592;10.184;2023-08-21T09:03:36;101993.22;;;24.10;100.00
16016;BME280;8112;53.592;10.184;2023-08-21T09:08:38;101995.34;;;24.34;100.00
16016;BME280;8112;53.592;10.184;2023-08-21T09:13:41;101992.75;;;24.15;100.00
16016;BME280;8112;53.592;10.184;2023-08-21T09:18:46;101995.44;;;24.43;100.00
16016;BME280;8112;53.592;10.184;2023-08-21T09:23:55;102011.97;;;24.30;100.00
16016;BME280;8112;53.592;10.184;2023-08-21T09:28:59;102009.91;;;24.42;100.00
16016;BME280;8112;53.592;10.184;2023-08-21T09:34:03;102001.31;;;24.56;100.00
16016;BME280;8112;53.592;10.184;2023-08-21T09:39:05;101998.75;;;24.09;100.00
16016;BME280;8112;53.592;10.184;2023-08-21T09:44:08;101994.47;;;24.62;100.00
16016;BME280;8112;53.592;10.184;2023-08-21T09:49:10;101987.72;;;24.76;100.00
16016;BME280;8112;53.592;10.184;2023-08-21T09:54:13;101989.16;;;24.52;100.00
16016;BME280;8112;53.592;10.184;2023-08-21T09:59:17;101991.63;;;24.17;100.00
16016;BME280;8112;53.592;10.184;2023-08-21T10:04:20;101987.50;;;24.41;100.00
16016;BME280;8112;53.592;10.184;2023-08-21T10:09:24;101983.75;;;23.96;100.00
16016;BME280;8112;53.592;10.184;2023-08-21T10:14:27;101987.00;;;24.00;100.00
16016;BME280;8112;53.592;10.184;2023-08-21T10:19:32;101983.66;;;24.26;100.00
16016;BME280;8112;53.592;10.184;2023-08-21T10:24:36;101992.38;;;24.56;100.00
16016;BME280;8112;53.592;10.184;2023-08-21T10:29:39;101989.63;;;24.84;100.00
16016;BME280;8112;53.592;10.184;2023-08-21T10:34:51;101986.66;;;24.59;100.00
16016;BME280;8112;53.592;10.184;2023-08-21T10:39:55;101988.28;;;24.70;100.00
16016;BME280;8112;53.592;10.184;2023-08-21T10:45:10;102003.78;;;25.04;100.00
16016;BME280;8112;53.592;10.184;2023-08-21T10:50:12;101996.72;;;25.29;100.00
16016;BME280;8112;53.592;10.184;2023-08-21T10:55:15;101982.34;;;25.73;100.00
16016;BME280;8112;53.592;10.184;2023-08-21T11:00:19;101973.72;;;26.04;100.00
16016;BME280;8112;53.592;10.184;2023-08-21T11:05:21;101981.91;;;26.29;100.00
16016;BME280;8112;53.592;10.184;2023-08-21T11:10:24;101982.63;;;26.48;100.00
16016;BME280;8112;53.592;10.184;2023-08-21T11:15:28;101974.03;;;26.78;100.00
16016;BME280;8112;53.592;10.184;2023-08-21T11:20:30;101983.63;;;25.96;100.00
16016;BME280;8112;53.592;10.184;2023-08-21T11:25:32;101979.53;;;25.49;100.00
16016;BME280;8112;53.592;10.184;2023-08-21T11:30:36;101977.53;;;25.59;100.00
16016;BME280;8112;53.592;10.184;2023-08-21T11:35:38;101974.53;;;26.05;100.00
16016;BME280;8112;53.592;10.184;2023-08-21T11:40:40;101977.84;;;26.33;100.00
16016;BME280;8112;53.592;10.184;2023-08-21T11:45:45;101988.16;;;26.30;100.00
16016;BME280;8112;53.592;10.184;2023-08-21T11:50:48;101972.00;;;26.03;100.00
16016;BME280;8112;53.592;10.184;2023-08-21T11:55:50;101976.81;;;26.18;97.69
16016;BME280;8112;53.592;10.184;2023-08-21T12:00:54;101983.41;;;25.81;93.83
16016;BME280;8112;53.592;10.184;2023-08-21T12:05:55;101974.81;;;26.28;98.84
16016;BME280;8112;53.592;10.184;2023-08-21T12:10:57;101962.03;;;26.55;100.00
16016;BME280;8112;53.592;10.184;2023-08-21T12:16:00;101977.75;;;26.09;97.01
16016;BME280;8112;53.592;10.184;2023-08-21T12:21:02;101971.22;;;25.76;100.00
16016;BME280;8112;53.592;10.184;2023-08-21T12:26:04;101976.47;;;25.78;100.00
16016;BME280;8112;53.592;10.184;2023-08-21T12:31:07;101971.91;;;25.79;95.29
16016;BME280;8112;53.592;10.184;2023-08-21T12:36:08;101963.13;;;25.76;100.00
16016;BME280;8112;53.592;10.184;2023-08-21T12:41:10;101972.28;;;25.84;100.00
16016;BME280;8112;53.592;10.184;2023-08-21T12:46:13;101970.50;;;25.40;89.57
16016;BME280;8112;53.592;10.184;2023-08-21T12:51:15;101970.28;;;25.33;90.96
16016;BME280;8112;53.592;10.184;2023-08-21T12:56:16;101969.13;;;25.09;94.25
16016;BME280;8112;53.592;10.184;2023-08-21T13:01:20;101971.13;;;24.71;99.64
16016;BME280;8112;53.592;10.184;2023-08-21T13:06:21;101969.16;;;25.17;88.11
16016;BME280;8112;53.592;10.184;2023-08-21T13:11:23;101967.19;;;25.01;90.67
16016;BME280;8112;53.592;10.184;2023-08-21T13:16:26;101966.25;;;25.11;87.52
16016;BME280;8112;53.592;10.184;2023-08-21T13:21:28;101958.63;;;25.32;92.90
16016;BME280;8112;53.592;10.184;2023-08-21T13:26:29;101954.94;;;25.60;82.21
16016;BME280;8112;53.592;10.184;2023-08-21T13:31:33;101943.31;;;26.02;74.93
16016;BME280;8112;53.592;10.184;2023-08-21T13:36:34;101947.16;;;26.59;72.86
16016;BME280;8112;53.592;10.184;2023-08-21T13:41:36;101951.22;;;26.64;67.46
16016;BME280;8112;53.592;10.184;2023-08-21T13:46:39;101944.09;;;26.38;70.30
16016;BME280;8112;53.592;10.184;2023-08-21T13:51:41;101933.44;;;26.28;71.34
16016;BME280;8112;53.592;10.184;2023-08-21T13:56:42;101935.78;;;25.71;68.63
16016;BME280;8112;53.592;10.184;2023-08-21T14:01:45;101934.34;;;25.94;70.66
16016;BME280;8112;53.592;10.184;2023-08-21T14:06:47;101935.69;;;25.98;63.51
16016;BME280;8112;53.592;10.184;2023-08-21T14:11:49;101926.41;;;25.92;65.54
16016;BME280;8112;53.592;10.184;2023-08-21T14:16:52;101926.63;;;26.15;69.11
16016;BME280;8112;53.592;10.184;2023-08-21T14:21:54;101924.03;;;25.97;67.87
16016;BME280;8112;53.592;10.184;2023-08-21T14:26:55;101934.19;;;26.03;69.28
16016;BME280;8112;53.592;10.184;2023-08-21T14:31:59;101925.34;;;26.28;64.25
16016;BME280;8112;53.592;10.184;2023-08-21T14:37:01;101925.75;;;26.07;67.57
16016;BME280;8112;53.592;10.184;2023-08-21T14:42:04;101923.69;;;25.92;66.37
16016;BME280;8112;53.592;10.184;2023-08-21T14:47:08;101920.66;;;25.87;62.61
16016;BME280;8112;53.592;10.184;2023-08-21T14:52:09;101915.63;;;26.09;63.43
16016;BME280;8112;53.592;10.184;2023-08-21T14:57:11;101916.66;;;25.99;64.98
16016;BME280;8112;53.592;10.184;2023-08-21T15:02:14;101912.25;;;26.07;63.62
16016;BME280;8112;53.592;10.184;2023-08-21T15:07:16;101902.88;;;26.19;60.44
16016;BME280;8112;53.592;10.184;2023-08-21T15:12:17;101896.63;;;26.35;64.84
16016;BME280;8112;53.592;10.184;2023-08-21T15:17:20;101893.75;;;26.28;62.50
16016;BME280;8112;53.592;10.184;2023-08-21T15:22:22;101883.00;;;25.85;66.17
16016;BME280;8112;53.592;10.184;2023-08-21T15:27:24;101885.06;;;25.92;69.82
16016;BME280;8112;53.592;10.184;2023-08-21T15:32:27;101878.78;;;25.83;72.67
16016;BME280;8112;53.592;10.184;2023-08-21T15:37:28;101873.00;;;25.78;71.20
16016;BME280;8112;53.592;10.184;2023-08-21T15:42:30;101861.91;;;25.81;70.75
16016;BME280;8112;53.592;10.184;2023-08-21T15:47:33;101857.91;;;26.10;73.50
16016;BME280;8112;53.592;10.184;2023-08-21T15:52:35;101849.47;;;26.04;72.05
16016;BME280;8112;53.592;10.184;2023-08-21T15:57:37;101855.94;;;26.45;68.82
16016;BME280;8112;53.592;10.184;2023-08-21T16:02:41;101860.06;;;27.22;67.78
16016;BME280;8112;53.592;10.184;2023-08-21T16:07:42;101854.56;;;26.91;67.19
16016;BME280;8112;53.592;10.184;2023-08-21T16:12:44;101844.06;;;26.71;68.49
16016;BME280;8112;53.592;10.184;2023-08-21T16:17:48;101844.59;;;26.99;63.11
16016;BME280;8112;53.592;10.184;2023-08-21T16:22:50;101848.38;;;27.22;64.93
16016;BME280;8112;53.592;10.184;2023-08-21T16:27:52;101856.22;;;26.09;70.71
16016;BME280;8112;53.592;10.184;2023-08-21T16:32:55;101849.84;;;25.24;75.20
16016;BME280;8112;53.592;10.184;2023-08-21T16:37:57;101852.03;;;24.94;77.66
16016;BME280;8112;53.592;10.184;2023-08-21T16:42:59;101845.44;;;24.70;75.26
16016;BME280;8112;53.592;10.184;2023-08-21T16:48:02;101852.47;;;24.62;77.80
16016;BME280;8112;53.592;10.184;2023-08-21T16:53:04;101853.63;;;24.60;80.52
16016;BME280;8112;53.592;10.184;2023-08-21T16:58:05;101857.34;;;24.41;82.79
16016;BME280;8112;53.592;10.184;2023-08-21T17:03:09;101858.56;;;24.28;81.21
16016;BME280;8112;53.592;10.184;2023-08-21T17:08:11;101855.19;;;24.26;78.70
16016;BME280;8112;53.592;10.184;2023-08-21T17:13:12;101855.13;;;24.18;77.99
16016;BME280;8112;53.592;10.184;2023-08-21T17:18:15;101844.56;;;24.07;80.69
16016;BME280;8112;53.592;10.184;2023-08-21T17:23:17;101852.00;;;23.95;83.13
16016;BME280;8112;53.592;10.184;2023-08-21T17:28:19;101858.34;;;23.75;86.86
16016;BME280;8112;53.592;10.184;2023-08-21T17:33:22;101849.88;;;23.70;85.40
16016;BME280;8112;53.592;10.184;2023-08-21T17:38:23;101846.84;;;23.55;87.54
16016;BME280;8112;53.592;10.184;2023-08-21T17:43:25;101844.66;;;23.41;94.91
16016;BME280;8112;53.592;10.184;2023-08-21T17:48:28;101847.81;;;23.26;98.17
16016;BME280;8112;53.592;10.184;2023-08-21T17:53:30;101855.75;;;23.18;100.00
16016;BME280;8112;53.592;10.184;2023-08-21T17:58:32;101861.72;;;23.02;100.00
16016;BME280;8112;53.592;10.184;2023-08-21T18:03:35;101857.28;;;22.73;100.00
16016;BME280;8112;53.592;10.184;2023-08-21T18:08:37;101856.13;;;22.46;100.00
16016;BME280;8112;53.592;10.184;2023-08-21T18:13:38;101855.03;;;22.29;100.00
16016;BME280;8112;53.592;10.184;2023-08-21T18:18:42;101850.31;;;22.01;100.00
16016;BME280;8112;53.592;10.184;2023-08-21T18:23:45;101848.69;;;21.69;100.00
16016;BME280;8112;53.592;10.184;2023-08-21T18:28:47;101858.63;;;21.47;100.00
16016;BME280;8112;53.592;10.184;2023-08-21T18:33:50;101853.03;;;21.29;100.00
16016;BME280;8112;53.592;10.184;2023-08-21T18:38:52;101857.47;;;21.09;100.00
16016;BME280;8112;53.592;10.184;2023-08-21T18:43:53;101851.13;;;20.89;100.00
16016;BME280;8112;53.592;10.184;2023-08-21T18:48:57;101860.94;;;20.78;100.00
16016;BME280;8112;53.592;10.184;2023-08-21T18:53:58;101858.81;;;20.61;100.00
16016;BME280;8112;53.592;10.184;2023-08-21T18:59:00;101849.47;;;20.55;100.00
16016;BME280;8112;53.592;10.184;2023-08-21T19:04:03;101855.00;;;20.42;100.00
16016;BME280;8112;53.592;10.184;2023-08-21T19:09:05;101852.50;;;20.29;100.00
16016;BME280;8112;53.592;10.184;2023-08-21T19:14:07;101863.41;;;20.05;100.00
16016;BME280;8112;53.592;10.184;2023-08-21T19:19:10;101864.63;;;19.78;100.00
16016;BME280;8112;53.592;10.184;2023-08-21T19:24:12;101868.66;;;19.49;100.00
16016;BME280;8112;53.592;10.184;2023-08-21T19:29:13;101864.53;;;19.45;100.00
16016;BME280;8112;53.592;10.184;2023-08-21T19:34:16;101869.03;;;19.33;100.00
16016;BME280;8112;53.592;10.184;2023-08-21T19:39:21;101868.91;;;19.23;100.00
16016;BME280;8112;53.592;10.184;2023-08-21T19:44:24;101857.94;;;19.15;100.00
16016;BME280;8112;53.592;10.184;2023-08-21T19:49:28;101858.78;;;19.04;100.00
16016;BME280;8112;53.592;10.184;2023-08-21T19:54:29;101856.69;;;18.85;100.00
16016;BME280;8112;53.592;10.184;2023-08-21T19:59:31;101858.22;;;18.76;100.00
16016;BME280;8112;53.592;10.184;2023-08-21T20:04:34;101870.56;;;18.66;100.00
16016;BME280;8112;53.592;10.184;2023-08-21T20:09:36;101868.06;;;18.51;100.00
16016;BME280;8112;53.592;10.184;2023-08-21T20:14:42;101870.72;;;18.40;100.00
16016;BME280;8112;53.592;10.184;2023-08-21T20:19:45;101860.06;;;18.27;100.00
16016;BME280;8112;53.592;10.184;2023-08-21T20:24:47;101867.81;;;18.19;100.00
16016;BME280;8112;53.592;10.184;2023-08-21T20:29:49;101871.13;;;18.09;100.00
16016;BME280;8112;53.592;10.184;2023-08-21T20:34:52;101872.34;;;18.05;100.00
16016;BME280;8112;53.592;10.184;2023-08-21T20:39:54;101869.75;;;18.17;100.00
16016;BME280;8112;53.592;10.184;2023-08-21T20:44:55;101869.91;;;18.02;100.00
16016;BME280;8112;53.592;10.184;2023-08-21T20:50:00;101872.16;;;17.83;100.00
16016;BME280;8112;53.592;10.184;2023-08-21T20:55:03;101873.13;;;17.81;100.00
16016;BME280;8112;53.592;10.184;2023-08-21T21:00:07;101880.06;;;17.71;100.00
16016;BME280;8112;53.592;10.184;2023-08-21T21:05:12;101879.59;;;18.03;100.00
16016;BME280;8112;53.592;10.184;2023-08-21T21:10:13;101876.03;;;17.78;100.00
16016;BME280;8112;53.592;10.184;2023-08-21T21:15:15;101880.41;;;17.53;100.00
16016;BME280;8112;53.592;10.184;2023-08-21T21:20:18;101852.56;;;17.71;100.00
16016;BME280;8112;53.592;10.184;2023-08-21T21:25:20;101849.13;;;17.81;100.00
16016;BME280;8112;53.592;10.184;2023-08-21T21:30:21;101852.81;;;17.42;100.00
16016;BME280;8112;53.592;10.184;2023-08-21T21:35:24;101855.16;;;17.07;100.00
16016;BME280;8112;53.592;10.184;2023-08-21T21:40:26;101854.81;;;16.86;100.00
16016;BME280;8112;53.592;10.184;2023-08-21T21:45:31;101846.41;;;16.79;100.00
16016;BME280;8112;53.592;10.184;2023-08-21T21:50:34;101857.13;;;16.65;100.00
16016;BME280;8112;53.592;10.184;2023-08-21T21:55:35;101865.97;;;16.65;100.00
16016;BME280;8112;53.592;10.184;2023-08-21T22:00:37;101862.25;;;16.81;100.00
16016;BME280;8112;53.592;10.184;2023-08-21T22:05:40;101859.22;;;17.00;100.00
16016;BME280;8112;53.592;10.184;2023-08-21T22:10:42;101851.75;;;17.05;100.00
16016;BME280;8112;53.592;10.184;2023-08-21T22:15:44;101848.09;;;16.93;100.00
16016;BME280;8112;53.592;10.184;2023-08-21T22:20:47;101841.38;;;16.88;100.00
16016;BME280;8112;53.592;10.184;2023-08-21T22:25:49;101832.38;;;17.16;100.00
16016;BME280;8112;53.592;10.184;2023-08-21T22:30:50;101818.31;;;17.14;100.00
16016;BME280;8112;53.592;10.184;2023-08-21T22:35:53;101811.38;;;16.99;100.00
16016;BME280;8112;53.592;10.184;2023-08-21T22:40:55;101820.53;;;16.81;100.00
16016;BME280;8112;53.592;10.184;2023-08-21T22:45:57;101817.84;;;16.69;100.00
16016;BME280;8112;53.592;10.184;2023-08-21T22:51:02;101821.34;;;16.82;100.00
16016;BME280;8112;53.592;10.184;2023-08-21T22:56:04;101811.81;;;17.05;100.00
16016;BME280;8112;53.592;10.184;2023-08-21T23:01:06;101813.00;;;17.14;100.00
16016;BME280;8112;53.592;10.184;2023-08-21T23:06:09;101800.94;;;17.08;100.00
16016;BME280;8112;53.592;10.184;2023-08-21T23:11:10;101784.00;;;16.84;100.00
16016;BME280;8112;53.592;10.184;2023-08-21T23:16:13;101789.31;;;16.71;100.00
16016;BME280;8112;53.592;10.184;2023-08-21T23:21:16;101796.66;;;16.67;100.00
16016;BME280;8112;53.592;10.184;2023-08-21T23:26:18;101779.94;;;16.65;100.00
16016;BME280;8112;53.592;10.184;2023-08-21T23:31:20;101790.34;;;16.55;100.00
16016;BME280;8112;53.592;10.184;2023-08-21T23:36:23;101786.00;;;16.54;100.00
16016;BME280;8112;53.592;10.184;2023-08-21T23:41:25;101784.59;;;16.48;100.00
16016;BME280;8112;53.592;10.184;2023-08-21T23:46:26;101787.13;;;16.37;100.00
16016;BME280;8112;53.592;10.184;2023-08-21T23:51:29;101783.38;;;16.27;100.00
16016;BME280;8112;53.592;10.184;2023-08-21T23:56:31;101791.44;;;16.25;100.00
